sensor_id;sensor_type;location;lat;lon;timestamp;P1;durP1;ratioP1;P2;durP2;ratioP2
52104;SDS011;38103;42.776;23.112;2023-02-24T00:01:16;34.50;;;16.35;;
52104;SDS011;38103;42.776;23.112;2023-02-24T00:03:55;30.02;;;15.20;;
52104;SDS011;38103;42.776;23.112;2023-02-24T00:06:23;27.17;;;14.07;;
52104;SDS011;38103;42.776;23.112;2023-02-24T00:08:49;30.90;;;13.85;;
52104;SDS011;38103;42.776;23.112;2023-02-24T00:11:15;31.02;;;13.48;;
52104;SDS011;38103;42.776;23.112;2023-02-24T00:13:44;27.67;;;12.40;;
52104;SDS011;38103;42.776;23.112;2023-02-24T00:16:11;26.10;;;13.18;;
52104;SDS011;38103;42.776;23.112;2023-02-24T00:18:44;26.55;;;12.50;;
52104;SDS011;38103;42.776;23.112;2023-02-24T00:21:11;29.50;;;13.50;;
52104;SDS011;38103;42.776;23.112;2023-02-24T00:23:40;26.58;;;13.05;;
52104;SDS011;38103;42.776;23.112;2023-02-24T00:26:07;26.83;;;12.65;;
52104;SDS011;38103;42.776;23.112;2023-02-24T00:28:35;27.88;;;13.57;;
52104;SDS011;38103;42.776;23.112;2023-02-24T00:31:01;24.48;;;12.27;;
52104;SDS011;38103;42.776;23.112;2023-02-24T00:33:35;27.58;;;13.00;;
52104;SDS011;38103;42.776;23.112;2023-02-24T00:36:19;25.35;;;11.98;;
52104;SDS011;38103;42.776;23.112;2023-02-24T00:38:49;25.38;;;12.75;;
52104;SDS011;38103;42.776;23.112;2023-02-24T00:41:18;26.67;;;13.10;;
52104;SDS011;38103;42.776;23.112;2023-02-24T00:43:46;25.70;;;12.27;;
52104;SDS011;38103;42.776;23.112;2023-02-24T00:46:17;27.95;;;13.07;;
52104;SDS011;38103;42.776;23.112;2023-02-24T00:48:45;28.00;;;13.25;;
52104;SDS011;38103;42.776;23.112;2023-02-24T00:51:14;25.77;;;11.85;;
52104;SDS011;38103;42.776;23.112;2023-02-24T00:53:47;26.00;;;12.10;;
52104;SDS011;38103;42.776;23.112;2023-02-24T00:56:13;23.45;;;12.20;;
52104;SDS011;38103;42.776;23.112;2023-02-24T00:58:40;24.13;;;12.13;;
52104;SDS011;38103;42.776;23.112;2023-02-24T01:01:13;29.13;;;13.20;;
52104;SDS011;38103;42.776;23.112;2023-02-24T01:03:43;29.52;;;12.95;;
52104;SDS011;38103;42.776;23.112;2023-02-24T01:06:10;29.20;;;13.50;;
52104;SDS011;38103;42.776;23.112;2023-02-24T01:08:37;25.75;;;12.48;;
52104;SDS011;38103;42.776;23.112;2023-02-24T01:11:07;25.67;;;12.13;;
52104;SDS011;38103;42.776;23.112;2023-02-24T01:13:51;25.58;;;12.68;;
52104;SDS011;38103;42.776;23.112;2023-02-24T01:16:17;25.95;;;12.05;;
52104;SDS011;38103;42.776;23.112;2023-02-24T01:18:43;23.90;;;12.80;;
52104;SDS011;38103;42.776;23.112;2023-02-24T01:21:11;28.38;;;12.73;;
52104;SDS011;38103;42.776;23.112;2023-02-24T01:23:38;28.70;;;12.95;;
52104;SDS011;38103;42.776;23.112;2023-02-24T01:26:05;25.95;;;12.50;;
52104;SDS011;38103;42.776;23.112;2023-02-24T01:28:30;27.10;;;12.65;;
52104;SDS011;38103;42.776;23.112;2023-02-24T01:30:59;24.33;;;11.95;;
52104;SDS011;38103;42.776;23.112;2023-02-24T01:33:26;24.85;;;11.80;;
52104;SDS011;38103;42.776;23.112;2023-02-24T01:35:53;26.52;;;12.25;;
52104;SDS011;38103;42.776;23.112;2023-02-24T01:38:19;28.88;;;13.45;;
52104;SDS011;38103;42.776;23.112;2023-02-24T01:40:57;22.13;;;12.15;;
52104;SDS011;38103;42.776;23.112;2023-02-24T01:43:23;26.45;;;13.70;;
52104;SDS011;38103;42.776;23.112;2023-02-24T01:45:49;25.90;;;12.88;;
52104;SDS011;38103;42.776;23.112;2023-02-24T01:48:15;24.10;;;13.10;;
52104;SDS011;38103;42.776;23.112;2023-02-24T01:50:42;24.50;;;13.10;;
52104;SDS011;38103;42.776;23.112;2023-02-24T01:53:09;24.65;;;13.38;;
52104;SDS011;38103;42.776;23.112;2023-02-24T01:55:37;25.70;;;13.70;;
52104;SDS011;38103;42.776;23.112;2023-02-24T01:58:17;28.98;;;12.70;;
52104;SDS011;38103;42.776;23.112;2023-02-24T02:00:46;28.70;;;12.98;;
52104;SDS011;38103;42.776;23.112;2023-02-24T02:03:23;30.25;;;13.27;;
52104;SDS011;38103;42.776;23.112;2023-02-24T02:06:00;27.60;;;13.50;;
52104;SDS011;38103;42.776;23.112;2023-02-24T02:08:27;25.23;;;12.98;;
52104;SDS011;38103;42.776;23.112;2023-02-24T02:10:54;28.25;;;13.00;;
52104;SDS011;38103;42.776;23.112;2023-02-24T02:13:26;24.90;;;12.43;;
52104;SDS011;38103;42.776;23.112;2023-02-24T02:18:46;24.38;;;12.52;;
52104;SDS011;38103;42.776;23.112;2023-02-24T02:34:54;27.00;;;12.77;;
52104;SDS011;38103;42.776;23.112;2023-02-24T02:43:00;23.92;;;11.88;;
52104;SDS011;38103;42.776;23.112;2023-02-24T02:48:11;26.52;;;11.65;;
52104;SDS011;38103;42.776;23.112;2023-02-24T02:50:44;23.08;;;11.07;;
52104;SDS011;38103;42.776;23.112;2023-02-24T02:56:33;28.23;;;13.43;;
52104;SDS011;38103;42.776;23.112;2023-02-24T02:59:21;25.70;;;11.60;;
52104;SDS011;38103;42.776;23.112;2023-02-24T03:01:50;24.80;;;11.43;;
52104;SDS011;38103;42.776;23.112;2023-02-24T03:04:19;23.60;;;11.40;;
52104;SDS011;38103;42.776;23.112;2023-02-24T03:06:58;25.27;;;11.20;;
52104;SDS011;38103;42.776;23.112;2023-02-24T03:09:27;22.40;;;11.10;;
52104;SDS011;38103;42.776;23.112;2023-02-24T03:11:58;25.73;;;11.02;;
52104;SDS011;38103;42.776;23.112;2023-02-24T03:14:33;21.20;;;10.77;;
52104;SDS011;38103;42.776;23.112;2023-02-24T03:17:06;23.30;;;10.80;;
52104;SDS011;38103;42.776;23.112;2023-02-24T03:19:37;22.95;;;11.50;;
52104;SDS011;38103;42.776;23.112;2023-02-24T03:22:06;20.27;;;9.82;;
52104;SDS011;38103;42.776;23.112;2023-02-24T03:24:40;23.63;;;9.95;;
52104;SDS011;38103;42.776;23.112;2023-02-24T03:27:13;21.35;;;9.98;;
52104;SDS011;38103;42.776;23.112;2023-02-24T03:29:47;20.65;;;10.98;;
52104;SDS011;38103;42.776;23.112;2023-02-24T03:34:56;21.25;;;9.68;;
52104;SDS011;38103;42.776;23.112;2023-02-24T03:37:25;21.70;;;9.98;;
52104;SDS011;38103;42.776;23.112;2023-02-24T03:39:55;21.92;;;10.32;;
52104;SDS011;38103;42.776;23.112;2023-02-24T03:42:31;22.77;;;10.45;;
52104;SDS011;38103;42.776;23.112;2023-02-24T03:44:58;21.95;;;10.90;;
52104;SDS011;38103;42.776;23.112;2023-02-24T03:47:25;24.10;;;12.05;;
52104;SDS011;38103;42.776;23.112;2023-02-24T03:49:50;22.52;;;11.45;;
52104;SDS011;38103;42.776;23.112;2023-02-24T03:52:21;20.83;;;11.95;;
52104;SDS011;38103;42.776;23.112;2023-02-24T04:00:33;21.40;;;10.43;;
52104;SDS011;38103;42.776;23.112;2023-02-24T04:03:10;21.85;;;9.40;;
52104;SDS011;38103;42.776;23.112;2023-02-24T04:08:24;20.38;;;9.45;;
52104;SDS011;38103;42.776;23.112;2023-02-24T04:13:36;20.48;;;9.70;;
52104;SDS011;38103;42.776;23.112;2023-02-24T04:16:09;22.35;;;10.60;;
52104;SDS011;38103;42.776;23.112;2023-02-24T04:18:41;26.42;;;9.90;;
52104;SDS011;38103;42.776;23.112;2023-02-24T04:21:13;21.73;;;10.43;;
52104;SDS011;38103;42.776;23.112;2023-02-24T04:23:41;23.98;;;10.65;;
52104;SDS011;38103;42.776;23.112;2023-02-24T04:26:09;22.23;;;10.23;;
52104;SDS011;38103;42.776;23.112;2023-02-24T04:28:37;20.67;;;9.88;;
52104;SDS011;38103;42.776;23.112;2023-02-24T04:31:06;22.73;;;9.90;;
52104;SDS011;38103;42.776;23.112;2023-02-24T04:33:41;22.35;;;9.73;;
52104;SDS011;38103;42.776;23.112;2023-02-24T04:36:07;20.67;;;9.35;;
52104;SDS011;38103;42.776;23.112;2023-02-24T04:38:34;21.60;;;9.98;;
52104;SDS011;38103;42.776;23.112;2023-02-24T04:41:00;21.80;;;9.82;;
52104;SDS011;38103;42.776;23.112;2023-02-24T04:43:26;17.73;;;8.98;;
52104;SDS011;38103;42.776;23.112;2023-02-24T04:45:53;20.05;;;10.18;;
52104;SDS011;38103;42.776;23.112;2023-02-24T04:48:19;20.02;;;9.15;;
52104;SDS011;38103;42.776;23.112;2023-02-24T04:50:45;19.88;;;9.13;;
52104;SDS011;38103;42.776;23.112;2023-02-24T04:53:14;20.13;;;9.63;;
52104;SDS011;38103;42.776;23.112;2023-02-24T04:55:41;20.73;;;9.52;;
52104;SDS011;38103;42.776;23.112;2023-02-24T04:58:15;21.17;;;9.05;;
52104;SDS011;38103;42.776;23.112;2023-02-24T05:00:43;20.08;;;8.45;;
52104;SDS011;38103;42.776;23.112;2023-02-24T05:03:12;18.77;;;8.60;;
52104;SDS011;38103;42.776;23.112;2023-02-24T05:05:37;17.58;;;8.50;;
52104;SDS011;38103;42.776;23.112;2023-02-24T05:08:04;20.92;;;10.50;;
52104;SDS011;38103;42.776;23.112;2023-02-24T05:10:37;22.10;;;9.75;;
52104;SDS011;38103;42.776;23.112;2023-02-24T05:15:31;17.35;;;8.52;;
52104;SDS011;38103;42.776;23.112;2023-02-24T05:18:01;17.52;;;9.07;;
52104;SDS011;38103;42.776;23.112;2023-02-24T05:20:35;18.52;;;8.68;;
52104;SDS011;38103;42.776;23.112;2023-02-24T05:23:24;18.73;;;8.75;;
52104;SDS011;38103;42.776;23.112;2023-02-24T05:25:50;17.92;;;8.23;;
52104;SDS011;38103;42.776;23.112;2023-02-24T05:28:19;20.35;;;9.52;;
52104;SDS011;38103;42.776;23.112;2023-02-24T05:30:48;21.25;;;9.82;;
52104;SDS011;38103;42.776;23.112;2023-02-24T05:33:14;21.20;;;8.70;;
52104;SDS011;38103;42.776;23.112;2023-02-24T05:35:45;18.98;;;9.40;;
52104;SDS011;38103;42.776;23.112;2023-02-24T05:38:15;22.35;;;9.32;;
52104;SDS011;38103;42.776;23.112;2023-02-24T05:40:43;24.67;;;9.93;;
52104;SDS011;38103;42.776;23.112;2023-02-24T05:43:11;19.42;;;10.05;;
52104;SDS011;38103;42.776;23.112;2023-02-24T05:45:46;18.80;;;9.48;;
52104;SDS011;38103;42.776;23.112;2023-02-24T05:48:12;17.63;;;8.80;;
52104;SDS011;38103;42.776;23.112;2023-02-24T05:50:41;20.70;;;9.60;;
52104;SDS011;38103;42.776;23.112;2023-02-24T05:53:15;20.23;;;8.95;;
52104;SDS011;38103;42.776;23.112;2023-02-24T05:55:40;23.20;;;10.18;;
52104;SDS011;38103;42.776;23.112;2023-02-24T05:58:07;23.13;;;9.68;;
52104;SDS011;38103;42.776;23.112;2023-02-24T06:00:33;20.05;;;9.23;;
52104;SDS011;38103;42.776;23.112;2023-02-24T06:03:03;21.08;;;9.63;;
52104;SDS011;38103;42.776;23.112;2023-02-24T06:05:33;18.77;;;8.32;;
52104;SDS011;38103;42.776;23.112;2023-02-24T06:08:00;19.98;;;9.02;;
52104;SDS011;38103;42.776;23.112;2023-02-24T06:10:32;16.17;;;7.82;;
52104;SDS011;38103;42.776;23.112;2023-02-24T06:12:59;17.23;;;7.53;;
52104;SDS011;38103;42.776;23.112;2023-02-24T06:15:26;17.23;;;7.60;;
52104;SDS011;38103;42.776;23.112;2023-02-24T06:17:52;19.75;;;8.00;;
52104;SDS011;38103;42.776;23.112;2023-02-24T06:20:20;17.38;;;8.27;;
52104;SDS011;38103;42.776;23.112;2023-02-24T06:22:47;18.58;;;7.88;;
52104;SDS011;38103;42.776;23.112;2023-02-24T06:25:12;18.58;;;7.97;;
52104;SDS011;38103;42.776;23.112;2023-02-24T06:27:38;19.15;;;8.40;;
52104;SDS011;38103;42.776;23.112;2023-02-24T06:30:03;19.17;;;7.40;;
52104;SDS011;38103;42.776;23.112;2023-02-24T06:32:34;18.73;;;7.80;;
52104;SDS011;38103;42.776;23.112;2023-02-24T06:35:00;17.80;;;8.30;;
52104;SDS011;38103;42.776;23.112;2023-02-24T06:37:25;20.67;;;9.20;;
52104;SDS011;38103;42.776;23.112;2023-02-24T06:39:51;18.48;;;8.63;;
52104;SDS011;38103;42.776;23.112;2023-02-24T06:42:16;19.30;;;8.77;;
52104;SDS011;38103;42.776;23.112;2023-02-24T06:44:42;23.33;;;8.88;;
52104;SDS011;38103;42.776;23.112;2023-02-24T06:47:10;16.90;;;7.93;;
52104;SDS011;38103;42.776;23.112;2023-02-24T06:49:37;22.33;;;7.72;;
52104;SDS011;38103;42.776;23.112;2023-02-24T06:52:03;21.38;;;8.43;;
52104;SDS011;38103;42.776;23.112;2023-02-24T06:54:28;19.40;;;7.85;;
52104;SDS011;38103;42.776;23.112;2023-02-24T06:56:54;22.20;;;8.07;;
52104;SDS011;38103;42.776;23.112;2023-02-24T06:59:23;21.83;;;8.93;;
52104;SDS011;38103;42.776;23.112;2023-02-24T07:01:55;22.70;;;8.85;;
52104;SDS011;38103;42.776;23.112;2023-02-24T07:04:22;20.50;;;8.68;;
52104;SDS011;38103;42.776;23.112;2023-02-24T07:06:52;26.10;;;9.00;;
52104;SDS011;38103;42.776;23.112;2023-02-24T07:09:21;21.65;;;8.20;;
52104;SDS011;38103;42.776;23.112;2023-02-24T07:11:50;21.08;;;8.68;;
52104;SDS011;38103;42.776;23.112;2023-02-24T07:14:20;18.95;;;7.95;;
52104;SDS011;38103;42.776;23.112;2023-02-24T07:16:47;19.58;;;8.20;;
52104;SDS011;38103;42.776;23.112;2023-02-24T07:19:18;24.80;;;8.68;;
52104;SDS011;38103;42.776;23.112;2023-02-24T07:21:46;21.60;;;8.90;;
52104;SDS011;38103;42.776;23.112;2023-02-24T07:24:14;22.23;;;9.05;;
52104;SDS011;38103;42.776;23.112;2023-02-24T07:26:53;19.30;;;8.32;;
52104;SDS011;38103;42.776;23.112;2023-02-24T07:29:20;19.50;;;8.52;;
52104;SDS011;38103;42.776;23.112;2023-02-24T07:31:47;21.70;;;8.57;;
52104;SDS011;38103;42.776;23.112;2023-02-24T07:34:12;18.23;;;8.73;;
52104;SDS011;38103;42.776;23.112;2023-02-24T07:36:38;20.63;;;9.68;;
52104;SDS011;38103;42.776;23.112;2023-02-24T07:39:13;20.75;;;9.45;;
52104;SDS011;38103;42.776;23.112;2023-02-24T07:41:40;22.63;;;9.70;;
52104;SDS011;38103;42.776;23.112;2023-02-24T07:44:10;20.85;;;9.80;;
52104;SDS011;38103;42.776;23.112;2023-02-24T07:46:37;22.15;;;9.73;;
52104;SDS011;38103;42.776;23.112;2023-02-24T07:49:04;25.67;;;10.35;;
52104;SDS011;38103;42.776;23.112;2023-02-24T07:51:33;31.13;;;11.80;;
52104;SDS011;38103;42.776;23.112;2023-02-24T07:53:59;26.48;;;11.65;;
52104;SDS011;38103;42.776;23.112;2023-02-24T07:56:27;29.92;;;14.50;;
52104;SDS011;38103;42.776;23.112;2023-02-24T07:59:02;29.23;;;14.52;;
52104;SDS011;38103;42.776;23.112;2023-02-24T08:01:32;30.92;;;15.30;;
52104;SDS011;38103;42.776;23.112;2023-02-24T08:04:03;30.67;;;14.60;;
52104;SDS011;38103;42.776;23.112;2023-02-24T08:09:04;23.90;;;11.15;;
52104;SDS011;38103;42.776;23.112;2023-02-24T08:12:03;27.80;;;11.50;;
52104;SDS011;38103;42.776;23.112;2023-02-24T08:14:28;25.27;;;11.75;;
52104;SDS011;38103;42.776;23.112;2023-02-24T08:16:58;27.70;;;12.02;;
52104;SDS011;38103;42.776;23.112;2023-02-24T08:19:26;25.52;;;11.90;;
52104;SDS011;38103;42.776;23.112;2023-02-24T08:21:57;27.05;;;12.13;;
52104;SDS011;38103;42.776;23.112;2023-02-24T08:24:43;25.50;;;12.50;;
52104;SDS011;38103;42.776;23.112;2023-02-24T08:27:18;28.05;;;12.15;;
52104;SDS011;38103;42.776;23.112;2023-02-24T08:29:47;26.13;;;13.13;;
52104;SDS011;38103;42.776;23.112;2023-02-24T08:35:12;24.83;;;11.52;;
52104;SDS011;38103;42.776;23.112;2023-02-24T08:37:49;28.33;;;13.00;;
52104;SDS011;38103;42.776;23.112;2023-02-24T08:40:17;26.60;;;11.88;;
52104;SDS011;38103;42.776;23.112;2023-02-24T08:45:24;33.67;;;13.02;;
52104;SDS011;38103;42.776;23.112;2023-02-24T08:47:52;34.10;;;15.18;;
52104;SDS011;38103;42.776;23.112;2023-02-24T08:50:24;25.90;;;12.07;;
52104;SDS011;38103;42.776;23.112;2023-02-24T08:52:58;27.17;;;12.77;;
52104;SDS011;38103;42.776;23.112;2023-02-24T08:55:25;22.38;;;11.10;;
52104;SDS011;38103;42.776;23.112;2023-02-24T08:57:56;23.70;;;11.02;;
52104;SDS011;38103;42.776;23.112;2023-02-24T09:00:26;26.63;;;11.85;;
52104;SDS011;38103;42.776;23.112;2023-02-24T09:03:12;26.83;;;12.02;;
52104;SDS011;38103;42.776;23.112;2023-02-24T09:05:54;28.08;;;11.70;;
52104;SDS011;38103;42.776;23.112;2023-02-24T09:08:31;24.98;;;10.35;;
52104;SDS011;38103;42.776;23.112;2023-02-24T09:11:01;22.55;;;10.90;;
52104;SDS011;38103;42.776;23.112;2023-02-24T09:13:35;23.83;;;11.48;;
52104;SDS011;38103;42.776;23.112;2023-02-24T09:16:02;23.88;;;10.50;;
52104;SDS011;38103;42.776;23.112;2023-02-24T09:18:28;23.65;;;10.80;;
52104;SDS011;38103;42.776;23.112;2023-02-24T09:20:55;23.75;;;11.82;;
52104;SDS011;38103;42.776;23.112;2023-02-24T09:23:22;29.90;;;11.18;;
52104;SDS011;38103;42.776;23.112;2023-02-24T09:25:54;26.10;;;10.07;;
52104;SDS011;38103;42.776;23.112;2023-02-24T09:28:21;23.73;;;10.95;;
52104;SDS011;38103;42.776;23.112;2023-02-24T09:30:52;23.98;;;10.40;;
52104;SDS011;38103;42.776;23.112;2023-02-24T09:33:20;23.27;;;10.13;;
52104;SDS011;38103;42.776;23.112;2023-02-24T09:35:58;22.88;;;9.98;;
52104;SDS011;38103;42.776;23.112;2023-02-24T09:38:48;19.40;;;9.30;;
52104;SDS011;38103;42.776;23.112;2023-02-24T09:44:04;20.52;;;9.18;;
52104;SDS011;38103;42.776;23.112;2023-02-24T09:46:48;27.33;;;10.00;;
52104;SDS011;38103;42.776;23.112;2023-02-24T09:49:18;22.20;;;9.82;;
52104;SDS011;38103;42.776;23.112;2023-02-24T09:51:48;25.40;;;11.13;;
52104;SDS011;38103;42.776;23.112;2023-02-24T09:54:24;25.63;;;10.95;;
52104;SDS011;38103;42.776;23.112;2023-02-24T09:57:02;21.50;;;10.55;;
52104;SDS011;38103;42.776;23.112;2023-02-24T09:59:49;25.30;;;11.45;;
52104;SDS011;38103;42.776;23.112;2023-02-24T10:02:56;25.75;;;11.63;;
52104;SDS011;38103;42.776;23.112;2023-02-24T10:06:00;25.23;;;11.43;;
52104;SDS011;38103;42.776;23.112;2023-02-24T10:08:37;23.42;;;10.98;;
52104;SDS011;38103;42.776;23.112;2023-02-24T10:11:07;27.38;;;11.38;;
52104;SDS011;38103;42.776;23.112;2023-02-24T10:13:37;24.77;;;12.27;;
52104;SDS011;38103;42.776;23.112;2023-02-24T10:16:13;28.90;;;12.55;;
52104;SDS011;38103;42.776;23.112;2023-02-24T10:18:51;24.40;;;11.60;;
52104;SDS011;38103;42.776;23.112;2023-02-24T10:22:39;30.40;;;13.60;;
52104;SDS011;38103;42.776;23.112;2023-02-24T10:24:51;31.10;;;13.70;;
52104;SDS011;38103;42.776;23.112;2023-02-24T10:33:16;25.35;;;11.98;;
52104;SDS011;38103;42.776;23.112;2023-02-24T10:35:42;26.50;;;11.35;;
52104;SDS011;38103;42.776;23.112;2023-02-24T10:38:07;25.92;;;11.30;;
52104;SDS011;38103;42.776;23.112;2023-02-24T10:40:42;25.98;;;12.18;;
52104;SDS011;38103;42.776;23.112;2023-02-24T10:43:14;26.70;;;12.38;;
52104;SDS011;38103;42.776;23.112;2023-02-24T10:45:54;22.87;;;12.30;;
52104;SDS011;38103;42.776;23.112;2023-02-24T10:48:30;26.95;;;12.63;;
52104;SDS011;38103;42.776;23.112;2023-02-24T10:51:08;21.98;;;11.60;;
52104;SDS011;38103;42.776;23.112;2023-02-24T10:53:44;23.60;;;12.20;;
52104;SDS011;38103;42.776;23.112;2023-02-24T10:56:17;38.33;;;18.10;;
52104;SDS011;38103;42.776;23.112;2023-02-24T10:59:10;31.80;;;14.63;;
52104;SDS011;38103;42.776;23.112;2023-02-24T11:01:52;29.33;;;14.27;;
52104;SDS011;38103;42.776;23.112;2023-02-24T11:04:29;27.42;;;13.65;;
52104;SDS011;38103;42.776;23.112;2023-02-24T11:07:32;25.27;;;12.43;;
52104;SDS011;38103;42.776;23.112;2023-02-24T11:12:47;26.25;;;12.75;;
52104;SDS011;38103;42.776;23.112;2023-02-24T11:15:32;23.38;;;12.07;;
52104;SDS011;38103;42.776;23.112;2023-02-24T11:18:20;32.95;;;12.57;;
52104;SDS011;38103;42.776;23.112;2023-02-24T11:23:44;33.05;;;13.90;;
52104;SDS011;38103;42.776;23.112;2023-02-24T11:26:15;28.63;;;12.75;;
52104;SDS011;38103;42.776;23.112;2023-02-24T11:34:20;32.03;;;14.80;;
52104;SDS011;38103;42.776;23.112;2023-02-24T11:42:11;31.73;;;14.15;;
52104;SDS011;38103;42.776;23.112;2023-02-24T11:44:50;28.25;;;14.73;;
52104;SDS011;38103;42.776;23.112;2023-02-24T11:47:31;28.80;;;14.25;;
52104;SDS011;38103;42.776;23.112;2023-02-24T11:50:15;29.08;;;13.50;;
52104;SDS011;38103;42.776;23.112;2023-02-24T11:52:41;26.02;;;13.30;;
52104;SDS011;38103;42.776;23.112;2023-02-24T11:55:54;30.55;;;15.50;;
52104;SDS011;38103;42.776;23.112;2023-02-24T11:58:17;28.23;;;14.02;;
52104;SDS011;38103;42.776;23.112;2023-02-24T12:01:00;33.88;;;14.80;;
52104;SDS011;38103;42.776;23.112;2023-02-24T12:06:36;32.85;;;14.40;;
52104;SDS011;38103;42.776;23.112;2023-02-24T12:09:12;29.27;;;13.23;;
52104;SDS011;38103;42.776;23.112;2023-02-24T12:11:46;30.42;;;14.80;;
52104;SDS011;38103;42.776;23.112;2023-02-24T12:14:25;30.85;;;15.52;;
52104;SDS011;38103;42.776;23.112;2023-02-24T12:17:26;32.35;;;15.85;;
52104;SDS011;38103;42.776;23.112;2023-02-24T12:20:22;32.50;;;15.00;;
52104;SDS011;38103;42.776;23.112;2023-02-24T12:22:55;31.90;;;15.18;;
52104;SDS011;38103;42.776;23.112;2023-02-24T12:25:26;32.53;;;16.23;;
52104;SDS011;38103;42.776;23.112;2023-02-24T12:39:17;34.67;;;17.17;;
52104;SDS011;38103;42.776;23.112;2023-02-24T12:47:37;30.35;;;15.20;;
52104;SDS011;38103;42.776;23.112;2023-02-24T12:53:58;35.33;;;16.80;;
52104;SDS011;38103;42.776;23.112;2023-02-24T12:58:38;34.88;;;16.55;;
52104;SDS011;38103;42.776;23.112;2023-02-24T13:10:06;34.72;;;17.77;;
52104;SDS011;38103;42.776;23.112;2023-02-24T13:15:05;33.60;;;17.58;;
52104;SDS011;38103;42.776;23.112;2023-02-24T13:17:49;33.33;;;16.20;;
52104;SDS011;38103;42.776;23.112;2023-02-24T13:22:50;31.98;;;15.95;;
52104;SDS011;38103;42.776;23.112;2023-02-24T13:25:17;39.10;;;16.75;;
52104;SDS011;38103;42.776;23.112;2023-02-24T13:27:53;33.53;;;17.13;;
52104;SDS011;38103;42.776;23.112;2023-02-24T13:35:42;32.95;;;16.40;;
52104;SDS011;38103;42.776;23.112;2023-02-24T13:38:21;32.28;;;17.02;;
52104;SDS011;38103;42.776;23.112;2023-02-24T13:44:00;31.90;;;16.42;;
52104;SDS011;38103;42.776;23.112;2023-02-24T13:52:40;30.70;;;16.13;;
52104;SDS011;38103;42.776;23.112;2023-02-24T13:58:25;31.02;;;16.42;;
52104;SDS011;38103;42.776;23.112;2023-02-24T14:01:14;32.63;;;17.75;;
52104;SDS011;38103;42.776;23.112;2023-02-24T14:03:43;36.00;;;16.95;;
52104;SDS011;38103;42.776;23.112;2023-02-24T14:06:25;33.70;;;16.83;;
52104;SDS011;38103;42.776;23.112;2023-02-24T14:08:55;32.15;;;16.20;;
52104;SDS011;38103;42.776;23.112;2023-02-24T14:11:24;32.60;;;16.48;;
52104;SDS011;38103;42.776;23.112;2023-02-24T14:13:53;30.38;;;15.98;;
52104;SDS011;38103;42.776;23.112;2023-02-24T14:16:21;31.58;;;16.25;;
52104;SDS011;38103;42.776;23.112;2023-02-24T14:21:20;34.05;;;16.63;;
52104;SDS011;38103;42.776;23.112;2023-02-24T14:24:00;32.85;;;17.27;;
52104;SDS011;38103;42.776;23.112;2023-02-24T14:26:31;35.97;;;17.10;;
52104;SDS011;38103;42.776;23.112;2023-02-24T14:29:05;34.60;;;15.80;;
52104;SDS011;38103;42.776;23.112;2023-02-24T14:31:32;36.13;;;18.63;;
52104;SDS011;38103;42.776;23.112;2023-02-24T14:34:01;36.92;;;17.50;;
52104;SDS011;38103;42.776;23.112;2023-02-24T14:36:32;33.05;;;17.17;;
52104;SDS011;38103;42.776;23.112;2023-02-24T14:39:11;35.53;;;17.83;;
52104;SDS011;38103;42.776;23.112;2023-02-24T14:41:40;35.25;;;18.05;;
52104;SDS011;38103;42.776;23.112;2023-02-24T14:47:01;43.15;;;19.15;;
52104;SDS011;38103;42.776;23.112;2023-02-24T14:49:31;37.67;;;18.48;;
52104;SDS011;38103;42.776;23.112;2023-02-24T14:51:59;35.45;;;18.65;;
52104;SDS011;38103;42.776;23.112;2023-02-24T14:54:29;35.97;;;18.45;;
52104;SDS011;38103;42.776;23.112;2023-02-24T14:57:02;35.95;;;17.65;;
52104;SDS011;38103;42.776;23.112;2023-02-24T14:59:35;38.70;;;19.42;;
52104;SDS011;38103;42.776;23.112;2023-02-24T15:02:04;37.50;;;18.23;;
52104;SDS011;38103;42.776;23.112;2023-02-24T15:04:39;36.67;;;18.60;;
52104;SDS011;38103;42.776;23.112;2023-02-24T15:07:15;35.67;;;18.05;;
52104;SDS011;38103;42.776;23.112;2023-02-24T15:09:45;37.47;;;18.83;;
52104;SDS011;38103;42.776;23.112;2023-02-24T15:12:19;37.58;;;18.77;;
52104;SDS011;38103;42.776;23.112;2023-02-24T15:15:29;35.87;;;18.10;;
52104;SDS011;38103;42.776;23.112;2023-02-24T15:17:43;40.03;;;18.50;;
52104;SDS011;38103;42.776;23.112;2023-02-24T15:22:51;39.58;;;19.13;;
52104;SDS011;38103;42.776;23.112;2023-02-24T15:25:27;31.92;;;17.50;;
52104;SDS011;38103;42.776;23.112;2023-02-24T15:30:51;38.80;;;18.67;;
52104;SDS011;38103;42.776;23.112;2023-02-24T15:33:19;39.58;;;18.13;;
52104;SDS011;38103;42.776;23.112;2023-02-24T15:35:53;36.92;;;18.38;;
52104;SDS011;38103;42.776;23.112;2023-02-24T15:38:23;39.70;;;18.85;;
52104;SDS011;38103;42.776;23.112;2023-02-24T15:40:53;35.05;;;18.65;;
52104;SDS011;38103;42.776;23.112;2023-02-24T15:43:31;34.85;;;19.20;;
52104;SDS011;38103;42.776;23.112;2023-02-24T15:45:57;39.53;;;20.30;;
52104;SDS011;38103;42.776;23.112;2023-02-24T15:48:23;38.35;;;19.23;;
52104;SDS011;38103;42.776;23.112;2023-02-24T15:50:51;39.78;;;19.92;;
52104;SDS011;38103;42.776;23.112;2023-02-24T15:53:18;40.05;;;19.05;;
52104;SDS011;38103;42.776;23.112;2023-02-24T15:55:43;39.95;;;19.50;;
52104;SDS011;38103;42.776;23.112;2023-02-24T15:58:15;37.65;;;19.70;;
52104;SDS011;38103;42.776;23.112;2023-02-24T16:00:42;39.22;;;19.52;;
52104;SDS011;38103;42.776;23.112;2023-02-24T16:03:09;34.58;;;17.77;;
52104;SDS011;38103;42.776;23.112;2023-02-24T16:05:35;41.60;;;20.02;;
52104;SDS011;38103;42.776;23.112;2023-02-24T16:08:00;40.70;;;19.75;;
52104;SDS011;38103;42.776;23.112;2023-02-24T16:10:27;44.50;;;21.02;;
52104;SDS011;38103;42.776;23.112;2023-02-24T16:12:54;40.33;;;21.05;;
52104;SDS011;38103;42.776;23.112;2023-02-24T16:15:25;42.83;;;22.13;;
52104;SDS011;38103;42.776;23.112;2023-02-24T16:17:54;41.92;;;21.00;;
52104;SDS011;38103;42.776;23.112;2023-02-24T16:20:24;40.63;;;20.23;;
52104;SDS011;38103;42.776;23.112;2023-02-24T16:22:54;35.45;;;19.83;;
52104;SDS011;38103;42.776;23.112;2023-02-24T16:25:24;43.60;;;21.30;;
52104;SDS011;38103;42.776;23.112;2023-02-24T16:27:50;44.97;;;23.55;;
52104;SDS011;38103;42.776;23.112;2023-02-24T16:30:21;44.35;;;23.05;;
52104;SDS011;38103;42.776;23.112;2023-02-24T16:32:48;40.30;;;20.88;;
52104;SDS011;38103;42.776;23.112;2023-02-24T16:35:14;42.10;;;20.60;;
52104;SDS011;38103;42.776;23.112;2023-02-24T16:37:39;40.97;;;20.55;;
52104;SDS011;38103;42.776;23.112;2023-02-24T16:40:16;52.20;;;23.20;;
52104;SDS011;38103;42.776;23.112;2023-02-24T16:42:50;48.53;;;23.98;;
52104;SDS011;38103;42.776;23.112;2023-02-24T16:45:16;47.65;;;24.08;;
52104;SDS011;38103;42.776;23.112;2023-02-24T16:47:42;46.90;;;24.40;;
52104;SDS011;38103;42.776;23.112;2023-02-24T16:50:11;49.22;;;24.00;;
52104;SDS011;38103;42.776;23.112;2023-02-24T16:52:42;46.42;;;22.58;;
52104;SDS011;38103;42.776;23.112;2023-02-24T16:55:10;46.13;;;21.52;;
52104;SDS011;38103;42.776;23.112;2023-02-24T16:57:37;44.60;;;22.60;;
52104;SDS011;38103;42.776;23.112;2023-02-24T17:00:03;45.75;;;21.33;;
52104;SDS011;38103;42.776;23.112;2023-02-24T17:02:29;47.05;;;22.83;;